• Join FlightAware (Why Join?)
  • Login
  • US Flag 
08:17PM EDT


 

Airport Tracker/Info


-or-


 

Live Flight TrackerFlight Track Log ✈ AWE2690 ✈ 15-Nov-2013 ✈ KCLT - KSYR

Flight Track Log - Related Links

Times and Time Zones

All times are in EST time to prevent confusion due to time zone crossing. See the AWE2690 flight status page for this flight to view local times or setup timezone preferences in your user account.

Time Position Orientation Groundspeed Altitude Reporting Facility
EST Latitude Longitude Course Direction KTS MPH feet Rate Location/Type
02:15PM 35.1206 -80.9611 183° South 237 273 3,800  Level Atlanta Center
02:16PM 35.3281 -81.0964 52° Northeast  Level FlightAware Approximate
02:16PM 35.0911 -81.0358 244° Southwest 271 312 6,900  Level Atlanta Center
02:16PM 35.0925 -81.0942 272° West 252 290 7,900 1,080 Climbing Atlanta Center
02:17PM 35.4019 -80.9814 39° Northeast  Level FlightAware Approximate
02:17PM 35.0953 -81.1194 278° West 259 298 8,000  Level Atlanta Center
02:17PM 35.1153 -81.1797 292° West 269 310 8,200 1,080 Climbing Atlanta Center
02:18PM 35.5143 -80.9380 13° North  Level FlightAware Approximate
02:18PM 35.1264 -81.2022 301° West 277 319 9,100  Level Atlanta Center
02:18PM 35.1833 -81.2333 336° Northwest 303 349 10,600 2,040 Climbing Atlanta Center
02:19PM 35.6305 -80.9038 13° North  Level FlightAware Approximate
02:19PM 35.2747 -81.2097 12° North 318 366 12,700  Level Atlanta Center
02:20PM 35.3411 -81.1133 50° Northeast 332 382 15,200 2,100 Climbing Atlanta Center
02:21PM 35.3994 -81.0169 53° Northeast 345 397 17,000 1,500 Climbing Atlanta Center
02:22PM 35.5072 -80.9875 13° North 363 418 18,200 1,680 Climbing Atlanta Center
02:23PM 35.6128 -80.9606 12° North 369 425 20,400 1,860 Climbing Atlanta Center
02:24PM 35.7272 -80.9408 North 391 450 22,000 1,740 Climbing Atlanta Center
02:25PM 35.8394 -80.9264 North 398 458 23,900 1,500 Climbing Atlanta Center
02:26PM 35.9681 -80.9036 North 414 476 25,000 1,080 Climbing Atlanta Center
02:27PM 36.0864 -80.8808 North 419 482 26,100 1,020 Climbing Atlanta Center
02:28PM 36.2050 -80.8636 North 424 488 27,100 1,020 Climbing Atlanta Center
02:29PM 36.3275 -80.8431 North 429 494 28,200 900 Climbing Atlanta Center
02:30PM 36.4439 -80.8256 North 448 516 28,900 780 Climbing Atlanta Center
02:31PM 36.5722 -80.7972 10° North 459 528 29,800 660 Climbing Atlanta Center
02:32PM 36.7053 -80.7764 North 471 542 30,300 660 Climbing Atlanta Center
02:35PM 37.0075 -80.7289 North 508 585 31,900 720 Climbing Washington Center
02:36PM 37.1489 -80.6967 10° North 508 585 32,700 900 Climbing Washington Center
02:37PM 37.3053 -80.6444 15° North 508 585 33,800 960 Climbing Washington Center
02:37PM 37.4472 -80.5964 15° North 515 593 34,700 600 Climbing Washington Center
02:39PM 37.5889 -80.5506 14° North 520 598 35,000 120 Climbing Washington Center
02:40PM 37.7328 -80.5022 15° North 525 604 35,000  Level Washington Center
02:40PM 37.8767 -80.4536 15° North 525 604 35,000  Level Washington Center
02:41PM 38.0078 -80.4094 15° North 525 604 35,000  Level Washington Center
02:42PM 38.1472 -80.3603 15° North 525 604 35,000  Level Washington Center
02:44PM 38.2847 -80.3136 15° North 520 598 35,000  Level Washington Center
02:45PM 38.4264 -80.2669 14° North 515 593 35,000  Level Washington Center
02:47PM 38.7219 -80.1628 15° North 515 593 35,000  Level Cleveland Center
02:48PM 38.8603 -80.1053 18° North 522 601 35,000  Level Cleveland Center
02:49PM 38.9911 -80.0219 26° Northeast 534 615 35,000  Level Cleveland Center
02:50PM 39.1381 -79.8997 33° Northeast 529 609 35,000  Level Cleveland Center
02:51PM 39.2608 -79.7883 35° Northeast 536 617 35,000  Level Cleveland Center
02:52PM 39.3822 -79.6811 34° Northeast 534 615 35,000  Level Cleveland Center
02:53PM 39.5047 -79.5711 35° Northeast 537 618 35,000  Level Cleveland Center
02:54PM 39.6242 -79.4633 35° Northeast 529 609 35,000  Level Cleveland Center
02:55PM 39.7692 -79.3331 35° Northeast 533 613 35,000  Level Cleveland Center
02:56PM 39.8883 -79.2256 35° Northeast 528 608 35,000  Level Cleveland Center
02:57PM 40.0072 -79.1178 35° Northeast 526 605 35,000  Level Cleveland Center
02:58PM 40.1283 -79.0069 35° Northeast 524 603 35,000  Level Cleveland Center
02:59PM 40.2472 -78.8978 35° Northeast 523 602 35,000  Level Cleveland Center
03:00PM 40.3717 -78.8097 28° Northeast 516 594 35,000  Level Cleveland Center
03:01PM 40.5303 -78.7361 19° North 508 585 35,000 -60 Level Cleveland Center
03:02PM 40.6633 -78.6742 19° North 511 588 34,900 -480 Descending Cleveland Center
03:03PM 40.7992 -78.6114 19° North 518 596 34,100 -480 Descending Cleveland Center
03:04PM 40.9308 -78.5503 19° North 515 593 34,000 -60 Descending Cleveland Center
03:05PM 41.0592 -78.4892 20° North 501 577 34,000  Level Cleveland Center
03:06PM 41.2139 -78.4178 19° North 492 566 34,000  Level Cleveland Center
03:07PM 41.3417 -78.3575 20° North 488 562 34,000  Level Cleveland Center
03:08PM 41.4822 -78.2903 20° North 485 558 34,000 -540 Level Cleveland Center
03:09PM 41.6069 -78.2294 20° North 483 556 32,900 -1,260 Descending Cleveland Center
03:10PM 41.7314 -78.1711 19° North 478 550 31,500 -1,380 Descending Cleveland Center
03:11PM 41.8514 -78.1131 20° North 467 537 30,100 -1,200 Descending Cleveland Center
03:12PM 41.9733 -78.0550 19° North 461 531 29,000 -540 Descending Cleveland Center
03:14PM 42.0914 -77.9936 21° North 457 526 29,000 -540 Level Cleveland Center
03:15PM 42.2036 -77.8444 45° Northeast 470 541 28,000 -1,080 Descending Cleveland Center
03:16PM 42.2969 -77.7169 45° Northeast 479 551 26,800 -1,260 Descending Cleveland Center
03:17PM 42.3875 -77.5908 46° Northeast 476 548 25,500 -1,500 Descending Cleveland Center
03:18PM 42.4911 -77.4467 46° Northeast 476 548 23,700 -1,800 Descending Cleveland Center
03:19PM 42.5856 -77.3167 45° Northeast 468 539 21,900 -1,860 Descending Cleveland Center
03:20PM 42.6742 -77.1928 46° Northeast 464 534 19,900 -1,440 Descending Cleveland Center
03:21PM 42.7622 -77.0692 46° Northeast 459 528 19,000 -480 Descending Cleveland Center
03:22PM 42.8381 -76.9322 53° Northeast 466 536 19,000  Level Cleveland Center
03:23PM 42.8908 -76.7781 65° Northeast 454 522 19,000 -720 Level Boston Center
03:24PM 42.9464 -76.6111 66° East 407 468 17,500 -2,100 Descending Boston Center
03:25PM 42.9933 -76.4706 65° Northeast 407 468 14,700 -2,880 Descending Boston Center
03:25PM 43.0089 -76.4228 66° East 400 460 13,800 -2,640 Descending Boston Center
03:26PM 43.0592 -76.3544 45° Northeast 401 461 12,000 -2,940 Descending Boston Center
03:26PM 43.0844 -76.3186 46° Northeast 380 437 10,800 -1,920 Descending Boston Center
03:27PM 43.1350 -76.2625 39° Northeast 369 425 10,100 -1,380 Descending Boston Center
03:27PM 43.1547 -76.2331 47° Northeast 316 364 9,400 -2,220 Descending Boston Center
03:28PM 43.1789 -76.1642 64° Northeast 328 377 7,900 -2,400 Descending Boston Center
03:28PM 43.1911 -76.1069 74° East 299 344 6,800 -2,220 Descending Boston Center
03:29PM 43.1953 -76.0528 84° East 305 351 5,700 -1,200 Descending Boston Center
03:29PM 43.1900 -75.9869 96° East 276 318 5,500 -660 Descending Boston Center
03:30PM 43.1831 -75.9525 105° East 288 331 5,000 -1,320 Descending Boston Center
03:30PM 43.1503 -75.9306 154° Southeast 196 226 4,200 -1,740 Descending Boston Center
03:31PM 43.1250 -75.9411 197° South 216 249 3,300 -1,380 Descending Boston Center
03:32PM 43.1144 -75.9661 240° Southwest 136 157 2,700 -1,380 Descending Boston Center
03:32PM 43.1119 -75.9925 263° West 168 193 1,900 -1,380 Descending Boston Center
03:33PM 43.1106 -76.0144 265° West 137 158 1,500 -900 Descending Boston Center
03:33PM 43.1114 -76.0478 272° West 151 174 1,000 -840 Descending Boston Center
03:34PM 43.1092 -76.0725 263° West 147 169 700 -600 Descending Boston Center
03:34PM 43.1100 -76.1019 272° West 147 169 400 -540 Descending Boston Center